createdAt,value
2022-09-01T11:25:41.137Z,98389.88
2022-09-01T11:28:36.108Z,98399.39
2022-09-01T11:31:24.593Z,98411.42
2022-09-01T11:34:13.137Z,98408.48
2022-09-01T11:36:56.433Z,98406.29
2022-09-01T11:39:51.230Z,98409.59
2022-09-01T11:42:27.404Z,98413.62
2022-09-01T11:45:03.651Z,98408.58
2022-09-01T11:47:40.150Z,98403.48
2022-09-01T11:50:20.713Z,98405.66
2022-09-01T11:53:04.771Z,98385.39
2022-09-01T11:55:37.756Z,98417.52
2022-09-01T11:58:17.811Z,98388.98
2022-09-01T12:00:48.839Z,98394.28
2022-09-01T12:03:27.364Z,98379.78
2022-09-01T12:06:04.213Z,98376.88
2022-09-01T12:08:40.957Z,98394.31
2022-09-01T12:11:17.256Z,98378.61
2022-09-01T12:14:10.925Z,98378.86
2022-09-01T12:16:43.045Z,98395.53
2022-09-01T12:19:26.799Z,98373.61
2022-09-01T12:22:03.747Z,98377.02
2022-09-01T12:24:38.827Z,98384.75
2022-09-01T12:27:12.233Z,98380.44
2022-09-01T12:29:46.377Z,98415.16
2022-09-01T12:32:20.864Z,98395.61
2022-09-01T12:35:11.373Z,98395.09
2022-09-01T12:37:41.288Z,98394.99
2022-09-01T12:40:27.745Z,98372.25
2022-09-01T12:43:02.778Z,98392.04
2022-09-01T12:45:51.662Z,98394.84
2022-09-01T12:48:31.541Z,98393.69
2022-09-01T12:53:58.508Z,98372.13
2022-09-01T12:56:34.513Z,98393.84
2022-09-01T12:59:15.665Z,98397.64
2022-09-01T13:01:47.508Z,98397.34
2022-09-01T13:04:31.175Z,98394.80
2022-09-01T13:07:08.901Z,98405.06
2022-09-01T13:09:40.661Z,98401.02
2022-09-01T13:12:18.994Z,98378.72
2022-09-01T13:14:53.204Z,98371.12
2022-09-01T13:17:26.764Z,98369.90
2022-09-01T13:20:03.264Z,98376.16
2022-09-01T13:22:38.350Z,98373.58
2022-09-01T13:25:14.415Z,98361.09
2022-09-01T13:27:48.930Z,98373.32
2022-09-01T13:30:27.125Z,98375.64
2022-09-01T13:35:36.811Z,98373.94
2022-09-01T13:38:09.979Z,98369.73
2022-09-01T13:40:43.357Z,98364.53
2022-09-01T13:43:16.732Z,98361.61
2022-09-01T13:45:52.528Z,98336.55
2022-09-01T13:49:02.190Z,98338.34
2022-09-01T13:51:19.349Z,98336.14
2022-09-01T13:53:38.965Z,98353.55
2022-09-01T13:56:12.055Z,98344.58
2022-09-01T13:58:45.293Z,98369.66
2022-09-01T14:04:04.449Z,98334.30
2022-09-01T14:06:44.011Z,98366.99
2022-09-01T14:09:18.524Z,98366.92
2022-09-01T14:11:53.803Z,98337.05
2022-09-01T14:14:27.283Z,98345.88
2022-09-01T14:17:01.014Z,98372.98
2022-09-01T14:19:35.447Z,98364.81
2022-09-01T14:22:09.376Z,98390.22
2022-09-01T14:24:42.682Z,98389.02
2022-09-01T14:27:15.867Z,98352.80
2022-09-01T14:29:54.657Z,98366.77
2022-09-01T14:32:29.708Z,98394.22
2022-09-01T14:35:02.838Z,98412.39
2022-09-01T14:37:36.178Z,98415.84
2022-09-01T14:40:14.805Z,98394.39
2022-09-01T14:42:49.692Z,98418.92
2022-09-01T14:45:25.802Z,98396.97
2022-09-01T14:48:01.355Z,98397.86
2022-09-01T14:50:35.678Z,98385.98
2022-09-01T14:53:09.023Z,98390.00
2022-09-01T14:55:44.083Z,98394.23
2022-09-01T14:58:17.117Z,98385.52
2022-09-01T15:00:50.551Z,98389.31
2022-09-01T15:03:26.649Z,98396.98
2022-09-01T15:06:02.336Z,98395.17
2022-09-01T15:08:39.854Z,98397.18
2022-09-01T15:11:15.129Z,98386.57
2022-09-01T15:13:52.670Z,98398.94
2022-09-01T15:16:28.445Z,98396.01
2022-09-01T15:19:01.536Z,98401.94
2022-09-01T15:21:34.607Z,98393.55
2022-09-01T15:24:09.438Z,98395.50
2022-09-01T15:26:44.515Z,98396.47
2022-09-01T15:29:18.414Z,98392.02
2022-09-01T15:31:51.737Z,98400.57
2022-09-01T15:34:24.931Z,98400.45
2022-09-01T15:36:57.963Z,98406.44
2022-09-01T15:39:37.610Z,98396.97
2022-09-01T15:42:07.216Z,98406.07
2022-09-01T15:44:41.522Z,98391.11
2022-09-01T15:47:14.785Z,98395.45
2022-09-01T15:49:47.923Z,98387.91
2022-09-01T15:52:21.124Z,98392.16
2022-09-01T15:54:54.768Z,98393.50
2022-09-01T15:57:28.246Z,98401.70
2022-09-01T16:00:02.763Z,98396.81
2022-09-01T16:02:38.720Z,98405.78
2022-09-01T16:05:13.747Z,98403.31
2022-09-01T16:07:47.077Z,98395.64
2022-09-01T16:10:21.591Z,98407.96
2022-09-01T16:12:54.604Z,98401.11
2022-09-01T16:15:28.258Z,98372.66
2022-09-01T16:18:15.247Z,98396.94
2022-09-01T16:20:53.947Z,98396.98
2022-09-01T16:23:32.703Z,98395.31
2022-09-01T16:26:05.945Z,98406.72
2022-09-01T16:28:40.122Z,98401.55
2022-09-01T16:31:17.930Z,98405.94
2022-09-01T16:33:51.542Z,98403.41
2022-09-01T16:36:36.242Z,98401.67
2022-09-01T16:39:16.065Z,98418.31
2022-09-01T16:41:54.889Z,98415.71
2022-09-01T16:44:34.969Z,98421.00
2022-09-01T16:47:14.436Z,98428.85
2022-09-01T16:49:50.652Z,98425.37
2022-09-01T16:52:26.805Z,98430.55
2022-09-01T16:55:06.514Z,98431.34
2022-09-01T16:57:44.072Z,98438.41
2022-09-01T17:00:19.325Z,98460.27
2022-09-01T17:02:57.312Z,98436.86
2022-09-01T17:05:34.307Z,98447.41
2022-09-01T17:08:10.512Z,98430.96
2022-09-01T17:10:47.306Z,98448.45
2022-09-01T17:13:23.550Z,98450.22
2022-09-01T17:16:02.788Z,98453.77
2022-09-01T17:18:39.097Z,98452.92
2022-09-01T17:21:16.523Z,98452.94
2022-09-01T17:23:53.139Z,98454.71
2022-09-01T17:26:29.392Z,98455.60
2022-09-01T17:29:06.176Z,98438.28
2022-09-01T17:31:46.664Z,98433.09
2022-09-01T17:34:29.281Z,98437.47
2022-09-01T17:37:13.139Z,98436.62
2022-09-01T17:39:53.119Z,98430.55
2022-09-01T17:42:33.054Z,98438.37
2022-09-01T17:45:15.466Z,98447.05
2022-09-01T17:47:54.079Z,98440.09
2022-09-01T17:50:31.293Z,98449.69
2022-09-01T17:53:10.496Z,98447.09
2022-09-01T17:55:49.022Z,98441.05
2022-09-01T17:58:31.007Z,98441.89
2022-09-01T18:01:08.615Z,98444.50
2022-09-01T18:03:53.249Z,98444.48
2022-09-01T18:06:30.082Z,98447.07
2022-09-01T18:09:03.741Z,98441.00
2022-09-01T18:11:42.463Z,98440.13
2022-09-01T18:14:23.130Z,98441.88
2022-09-01T18:17:01.078Z,98433.20
2022-09-01T18:19:38.407Z,98440.17
2022-09-01T18:22:14.516Z,98438.45
2022-09-01T18:24:57.581Z,98439.34
2022-09-01T18:27:33.589Z,98435.86
2022-09-01T18:30:09.182Z,98430.67
2022-09-01T18:32:46.673Z,98434.13
2022-09-01T18:35:37.131Z,98435.02
2022-09-01T18:38:36.537Z,98440.23
2022-09-01T18:41:41.704Z,98435.02
2022-09-01T18:44:26.438Z,98441.13
2022-09-01T18:47:02.056Z,98445.47
2022-09-01T18:49:40.384Z,98432.44
2022-09-01T18:52:22.695Z,98440.23
2022-09-01T18:57:42.583Z,98434.98
2022-09-01T19:00:19.224Z,98428.92
2022-09-01T19:03:05.928Z,98433.30
2022-09-01T19:05:46.921Z,98436.77
2022-09-01T19:08:25.756Z,98440.23
2022-09-01T19:11:02.276Z,98440.25
2022-09-01T19:13:43.484Z,98440.25
2022-09-01T19:16:20.984Z,98431.56
2022-09-01T19:18:57.597Z,98421.17
2022-09-01T19:21:33.095Z,98435.07
2022-09-01T19:24:09.633Z,98428.99
2022-09-01T19:26:45.695Z,98433.33
2022-09-01T19:29:22.309Z,98422.91
2022-09-01T19:32:00.645Z,98390.80
2022-09-01T19:34:38.638Z,98432.45
2022-09-01T19:37:12.769Z,98420.31
2022-09-01T19:39:54.004Z,98423.78
2022-09-01T19:45:15.519Z,98420.32
2022-09-01T19:47:52.523Z,98430.72
2022-09-01T19:50:32.174Z,98424.66
2022-09-01T19:53:11.024Z,98428.98
2022-09-01T19:55:52.910Z,98424.65
2022-09-01T19:58:31.270Z,98432.48
2022-09-01T20:01:07.349Z,98422.93
2022-09-01T20:03:43.542Z,98416.83
2022-09-01T20:06:23.979Z,98416.85
2022-09-01T20:11:52.625Z,98424.67
2022-09-01T20:15:08.991Z,98423.80
2022-09-01T20:17:53.864Z,98428.95
2022-09-01T20:20:38.054Z,98425.50
2022-09-01T20:26:02.515Z,98423.75
2022-09-01T20:28:44.572Z,98415.92
2022-09-01T20:31:24.390Z,98417.64
2022-09-01T20:34:02.414Z,98423.71
2022-09-01T20:36:41.170Z,98423.69
2022-09-01T20:39:37.332Z,98413.30
2022-09-01T20:42:16.494Z,98403.75
2022-09-01T20:44:54.630Z,98409.79
2022-09-01T20:47:34.883Z,98407.19
2022-09-01T20:50:27.504Z,98407.20
2022-09-01T20:53:13.152Z,98408.91
2022-09-01T20:55:54.761Z,98403.71
2022-09-01T20:58:40.254Z,98418.43
2022-09-01T21:01:24.343Z,98415.84
2022-09-01T21:06:59.661Z,98405.42
2022-09-01T21:09:49.815Z,98412.32
2022-09-01T21:12:34.505Z,98423.58
2022-09-01T21:15:19.445Z,98406.27
2022-09-01T21:18:00.256Z,98412.33
2022-09-01T21:20:43.657Z,98418.34
2022-09-01T21:23:25.742Z,98408.84
2022-09-01T21:26:02.123Z,98414.00
2022-09-01T21:28:45.004Z,98402.75
2022-09-01T21:31:26.921Z,98387.12
2022-09-01T21:33:57.353Z,98412.26
2022-09-01T21:36:31.027Z,98413.11
2022-09-01T21:39:07.449Z,98408.77
2022-09-01T21:41:40.755Z,98415.67
2022-09-01T21:44:14.788Z,98415.68
2022-09-01T21:46:48.508Z,98417.42
2022-09-01T21:49:21.954Z,98411.38
2022-09-01T21:51:55.447Z,98415.78
2022-09-01T21:54:28.899Z,98421.87
2022-09-01T21:57:04.057Z,98407.17
2022-09-01T21:59:38.836Z,98414.11
2022-09-01T22:02:14.124Z,98408.05
2022-09-01T22:04:49.060Z,98419.34
2022-09-01T22:07:22.090Z,98417.61
2022-09-01T22:09:57.064Z,98408.95
2022-09-01T22:12:30.255Z,98421.11
2022-09-01T22:15:05.737Z,98411.55
2022-09-01T22:17:39.517Z,98420.22
2022-09-01T22:20:16.260Z,98412.41
2022-09-01T22:22:50.125Z,98414.16
2022-09-01T22:25:28.362Z,98399.41
2022-09-01T22:28:02.550Z,98398.55
2022-09-01T22:30:36.732Z,98428.88
2022-09-01T22:33:10.030Z,98412.42
2022-09-01T22:35:44.720Z,98433.20
2022-09-01T22:38:18.866Z,98420.20
2022-09-01T22:40:55.069Z,98412.40
2022-09-01T22:43:29.268Z,98422.80
2022-09-01T22:46:02.449Z,98425.41
2022-09-01T22:48:35.788Z,98421.06
2022-09-01T22:51:09.944Z,98424.52
2022-09-01T22:53:45.176Z,98418.46
2022-09-01T22:56:22.165Z,98410.66
2022-09-01T22:58:57.958Z,98423.66
2022-09-01T23:01:34.048Z,98424.52
2022-09-01T23:04:09.259Z,98421.92
2022-09-01T23:06:45.225Z,98424.52
2022-09-01T23:09:20.204Z,98427.12
2022-09-01T23:11:53.483Z,98414.12
2022-09-01T23:14:26.697Z,98426.27
2022-09-01T23:16:59.886Z,98419.31
2022-09-01T23:19:33.010Z,98426.27
2022-09-01T23:22:06.572Z,98429.72
2022-09-01T23:24:39.563Z,98421.06
2022-09-01T23:27:12.722Z,98424.52
2022-09-01T23:29:45.807Z,98421.92
2022-09-01T23:32:18.954Z,98438.37
2022-09-01T23:34:53.220Z,98426.27
2022-09-01T23:37:26.464Z,98434.92
2022-09-01T23:39:59.637Z,98435.78
2022-09-01T23:45:16.638Z,98435.83
2022-09-01T23:47:49.925Z,98443.61
2022-09-01T23:50:23.143Z,98433.18
2022-09-01T23:52:56.144Z,98433.18
2022-09-01T23:55:29.411Z,98445.33
2022-09-01T23:58:02.540Z,98440.98
